createdAt,value
2023-03-19T00:00:56.120Z,8.80
2023-03-19T00:03:47.886Z,8.76
2023-03-19T00:06:20.291Z,8.78
2023-03-19T00:08:52.326Z,8.80
2023-03-19T00:11:24.422Z,8.82
2023-03-19T00:13:56.333Z,8.81
2023-03-19T00:16:28.676Z,8.77
2023-03-19T00:19:01.287Z,8.71
2023-03-19T00:21:33.387Z,8.73
2023-03-19T00:24:05.408Z,8.72
2023-03-19T00:26:37.888Z,8.74
2023-03-19T00:29:10.500Z,8.68
2023-03-19T00:31:45.400Z,8.68
2023-03-19T00:34:18.900Z,8.66
2023-03-19T00:36:51.209Z,8.65
2023-03-19T00:39:23.205Z,8.68
2023-03-19T00:41:54.972Z,8.69
2023-03-19T00:44:26.756Z,8.64
2023-03-19T00:46:58.529Z,8.61
2023-03-19T00:49:30.264Z,8.53
2023-03-19T00:52:02.087Z,8.50
2023-03-19T00:54:34.623Z,8.48
2023-03-19T00:57:06.658Z,8.46
2023-03-19T00:59:38.496Z,8.41
2023-03-19T01:02:10.785Z,8.29
2023-03-19T01:04:42.795Z,8.26
2023-03-19T01:07:15.702Z,8.23
2023-03-19T01:09:47.737Z,8.25
2023-03-19T01:12:21.066Z,8.34
2023-03-19T01:14:53.299Z,8.39
2023-03-19T01:17:25.311Z,8.42
2023-03-19T01:19:57.692Z,8.35
2023-03-19T01:22:29.665Z,8.24
2023-03-19T01:25:04.662Z,8.15
2023-03-19T01:27:37.216Z,8.19
2023-03-19T01:30:09.346Z,8.15
2023-03-19T01:33:10.594Z,8.14
2023-03-19T01:35:51.915Z,8.16
2023-03-19T01:38:25.503Z,8.12
2023-03-19T01:40:59.451Z,8.20
2023-03-19T01:43:30.752Z,8.25
2023-03-19T01:46:23.994Z,8.25
2023-03-19T01:49:16.208Z,8.13
2023-03-19T01:51:53.221Z,8.12
2023-03-19T01:54:39.804Z,8.01
2023-03-19T01:57:31.947Z,7.86
2023-03-19T02:00:28.695Z,7.88
2023-03-19T02:03:03.295Z,7.77
2023-03-19T02:05:47.382Z,7.79
2023-03-19T02:08:22.848Z,7.87
2023-03-19T02:11:00.295Z,7.78
2023-03-19T02:13:32.415Z,7.70
2023-03-19T02:16:04.430Z,7.71
2023-03-19T02:18:37.011Z,7.78
2023-03-19T02:21:11.718Z,7.84
2023-03-19T02:23:50.980Z,7.75
2023-03-19T02:26:27.525Z,7.72
2023-03-19T02:29:04.768Z,7.80
2023-03-19T02:31:38.474Z,7.86
2023-03-19T02:34:37.970Z,7.92
2023-03-19T02:37:17.050Z,7.97
2023-03-19T02:40:00.252Z,7.95
2023-03-19T02:42:32.898Z,7.93
2023-03-19T02:45:05.403Z,7.99
2023-03-19T02:47:37.396Z,8.00
2023-03-19T02:50:12.114Z,8.02
2023-03-19T02:52:44.139Z,8.04
2023-03-19T02:55:18.388Z,8.05
2023-03-19T02:57:50.437Z,8.07
2023-03-19T03:00:23.122Z,8.08
2023-03-19T03:02:55.970Z,8.09
2023-03-19T03:05:28.673Z,8.05
2023-03-19T03:08:00.553Z,8.05
2023-03-19T03:10:33.452Z,8.04
2023-03-19T03:13:06.086Z,8.04
2023-03-19T03:15:38.046Z,8.04
2023-03-19T03:18:09.939Z,8.05
2023-03-19T03:20:41.788Z,8.05
2023-03-19T03:23:13.668Z,8.01
2023-03-19T03:25:45.419Z,7.98
2023-03-19T03:28:17.848Z,8.00
2023-03-19T03:30:50.409Z,8.01
2023-03-19T03:33:22.696Z,8.06
2023-03-19T03:35:54.728Z,8.10
2023-03-19T03:38:26.969Z,8.11
2023-03-19T03:40:59.113Z,8.12
2023-03-19T03:43:31.444Z,8.13
2023-03-19T03:46:03.697Z,8.14
2023-03-19T03:48:35.873Z,8.13
2023-03-19T03:51:08.333Z,8.12
2023-03-19T03:53:40.330Z,8.08
2023-03-19T03:56:12.522Z,8.04
2023-03-19T03:58:44.514Z,7.88
2023-03-19T04:01:18.916Z,7.70
2023-03-19T04:03:51.581Z,7.66
2023-03-19T04:06:25.661Z,7.65
2023-03-19T04:09:10.193Z,7.59
2023-03-19T04:11:43.677Z,7.54
2023-03-19T04:14:15.539Z,7.54
2023-03-19T04:16:48.352Z,7.52
2023-03-19T04:19:19.251Z,7.45
2023-03-19T04:21:51.060Z,7.44
2023-03-19T04:24:22.885Z,7.47
2023-03-19T04:26:54.988Z,7.44
2023-03-19T04:29:27.540Z,7.43
2023-03-19T04:31:59.531Z,7.41
2023-03-19T04:34:32.168Z,7.33
2023-03-19T04:37:04.688Z,7.26
2023-03-19T04:39:35.359Z,7.27
2023-03-19T04:42:07.634Z,7.25
2023-03-19T04:44:45.644Z,7.11
2023-03-19T04:47:16.426Z,7.02
2023-03-19T04:50:00.890Z,7.03
2023-03-19T04:52:35.292Z,7.06
2023-03-19T04:55:08.868Z,7.06
2023-03-19T04:57:51.561Z,7.03
2023-03-19T05:00:26.152Z,6.98
2023-03-19T05:02:58.494Z,7.06
2023-03-19T05:05:31.004Z,7.10
2023-03-19T05:08:03.501Z,7.09
2023-03-19T05:10:36.678Z,7.10
2023-03-19T05:13:09.312Z,7.18
2023-03-19T05:15:46.349Z,7.23
2023-03-19T05:18:18.256Z,7.26
2023-03-19T05:20:51.178Z,7.28
2023-03-19T05:23:25.845Z,7.29
2023-03-19T05:26:06.586Z,7.23
2023-03-19T05:28:58.345Z,7.12
2023-03-19T05:31:38.103Z,7.02
2023-03-19T05:34:12.959Z,6.94
2023-03-19T05:36:44.935Z,6.93
2023-03-19T05:39:21.261Z,6.94
2023-03-19T05:41:53.449Z,7.03
2023-03-19T05:44:28.600Z,7.03
2023-03-19T05:47:08.833Z,7.10
2023-03-19T05:49:41.745Z,7.18
2023-03-19T05:52:13.988Z,7.21
2023-03-19T05:54:49.403Z,7.26
2023-03-19T05:57:36.259Z,7.30
2023-03-19T06:00:27.770Z,7.34
2023-03-19T06:02:58.249Z,7.37
2023-03-19T06:05:40.980Z,7.40
2023-03-19T06:08:35.987Z,7.43
2023-03-19T06:11:27.159Z,7.49
2023-03-19T06:14:19.474Z,7.54
2023-03-19T06:17:00.812Z,7.59
2023-03-19T06:19:32.954Z,7.65
2023-03-19T06:22:04.834Z,7.70
2023-03-19T06:24:37.432Z,7.74
2023-03-19T06:27:09.681Z,7.80
2023-03-19T06:29:41.641Z,7.83
2023-03-19T06:32:27.127Z,7.87
2023-03-19T06:35:00.387Z,7.88
2023-03-19T06:37:32.532Z,7.86
2023-03-19T06:40:05.600Z,7.95
2023-03-19T06:42:37.651Z,7.99
2023-03-19T06:45:11.325Z,8.02
2023-03-19T06:47:44.793Z,8.05
2023-03-19T06:50:18.105Z,8.11
2023-03-19T06:52:50.005Z,8.14
2023-03-19T06:55:21.955Z,8.19
2023-03-19T06:57:53.970Z,8.23
2023-03-19T07:00:26.158Z,8.28
2023-03-19T07:02:58.404Z,8.30
2023-03-19T07:05:30.252Z,8.35
2023-03-19T07:08:02.158Z,8.41
2023-03-19T07:10:34.599Z,8.45
2023-03-19T07:13:07.310Z,8.48
2023-03-19T07:15:39.671Z,8.51
2023-03-19T07:18:12.295Z,8.54
2023-03-19T07:20:44.484Z,8.59
2023-03-19T07:23:16.609Z,8.64
2023-03-19T07:25:49.339Z,8.70
2023-03-19T07:28:21.782Z,8.76
2023-03-19T07:30:55.137Z,8.83
2023-03-19T07:33:27.192Z,8.88
2023-03-19T07:35:59.400Z,8.94
2023-03-19T07:38:31.826Z,8.98
2023-03-19T07:41:04.418Z,9.03
2023-03-19T07:43:36.422Z,9.10
2023-03-19T07:46:09.592Z,9.14
2023-03-19T07:48:41.759Z,9.16
2023-03-19T07:51:13.804Z,9.21
2023-03-19T07:53:46.033Z,9.25
2023-03-19T07:56:18.094Z,9.29
2023-03-19T07:58:50.201Z,9.32
2023-03-19T08:01:22.462Z,9.39
2023-03-19T08:03:55.101Z,9.42
2023-03-19T08:06:28.032Z,9.47
2023-03-19T08:09:00.145Z,9.55
2023-03-19T08:11:32.448Z,9.64
2023-03-19T08:14:04.408Z,9.63
2023-03-19T08:16:36.536Z,9.70
2023-03-19T08:19:09.786Z,9.79
2023-03-19T08:21:41.739Z,9.89
2023-03-19T08:24:16.343Z,10.01
2023-03-19T08:26:48.477Z,10.08
2023-03-19T08:29:20.998Z,10.11
2023-03-19T08:31:52.874Z,10.15
2023-03-19T08:34:27.044Z,10.17
2023-03-19T08:37:01.428Z,10.24
2023-03-19T08:39:33.252Z,10.36
2023-03-19T08:42:05.919Z,10.46
2023-03-19T08:44:37.773Z,10.54
2023-03-19T08:47:10.193Z,10.64
2023-03-19T08:49:41.986Z,10.74
2023-03-19T08:52:14.691Z,10.82
2023-03-19T08:54:46.754Z,10.93
2023-03-19T08:57:18.876Z,10.96
2023-03-19T08:59:51.114Z,10.93
2023-03-19T09:02:22.958Z,10.95
2023-03-19T09:04:55.851Z,11.07
2023-03-19T09:07:27.784Z,11.20
2023-03-19T09:09:59.695Z,11.25
2023-03-19T09:12:31.721Z,11.25
2023-03-19T09:15:11.845Z,11.31
2023-03-19T09:17:43.953Z,11.44
2023-03-19T09:20:15.880Z,11.51
2023-03-19T09:22:48.333Z,11.56
2023-03-19T09:25:20.432Z,11.60
2023-03-19T09:27:52.250Z,11.66
2023-03-19T09:30:24.146Z,11.75
2023-03-19T09:32:56.973Z,11.82
2023-03-19T09:35:31.261Z,11.92
2023-03-19T09:38:03.496Z,12.03
2023-03-19T09:40:39.420Z,12.11
2023-03-19T09:43:29.940Z,12.23
2023-03-19T09:46:03.798Z,12.37
2023-03-19T09:48:43.253Z,12.42
2023-03-19T09:51:20.755Z,12.52
2023-03-19T09:53:57.816Z,12.59
2023-03-19T09:56:30.011Z,12.67
2023-03-19T09:59:03.243Z,12.68
2023-03-19T10:01:38.186Z,12.71
2023-03-19T10:04:28.852Z,12.75
2023-03-19T10:07:13.642Z,12.78
2023-03-19T10:09:55.853Z,12.86
2023-03-19T10:12:46.392Z,12.92
2023-03-19T10:15:26.240Z,12.99
2023-03-19T10:18:04.242Z,13.03
2023-03-19T10:20:49.340Z,13.06
2023-03-19T10:23:35.528Z,13.14
2023-03-19T10:26:11.991Z,13.22
2023-03-19T10:28:46.503Z,13.24
2023-03-19T10:31:29.847Z,13.26
2023-03-19T10:34:14.372Z,13.30
2023-03-19T10:36:46.428Z,13.34
2023-03-19T10:39:19.864Z,13.35
2023-03-19T10:42:01.974Z,13.37
2023-03-19T10:44:36.056Z,13.41
2023-03-19T10:47:15.824Z,13.45
2023-03-19T10:49:47.896Z,13.48
2023-03-19T10:52:25.542Z,13.51
2023-03-19T10:55:04.620Z,13.51
2023-03-19T10:57:37.424Z,13.54
2023-03-19T11:00:17.007Z,13.60
2023-03-19T11:02:54.684Z,13.65
2023-03-19T11:05:33.708Z,13.73
2023-03-19T11:08:29.147Z,13.78
2023-03-19T11:11:07.229Z,13.86
2023-03-19T11:13:39.323Z,13.91
2023-03-19T11:16:11.288Z,13.96
2023-03-19T11:18:43.527Z,13.94
2023-03-19T11:21:29.093Z,13.98
2023-03-19T11:24:05.227Z,14.04
2023-03-19T11:26:38.233Z,14.07
2023-03-19T11:29:12.181Z,14.12
2023-03-19T11:31:53.464Z,14.12
2023-03-19T11:34:36.992Z,14.17
2023-03-19T11:37:15.711Z,14.19
2023-03-19T11:39:58.517Z,14.16
2023-03-19T11:43:08.830Z,14.11
2023-03-19T11:45:48.660Z,14.11
2023-03-19T11:48:33.913Z,14.12
2023-03-19T11:51:12.244Z,14.16
2023-03-19T11:53:58.305Z,14.17
2023-03-19T11:56:38.512Z,14.21
2023-03-19T11:59:30.247Z,14.27
2023-03-19T12:02:48.811Z,14.29
2023-03-19T12:05:29.640Z,14.31
2023-03-19T12:08:25.241Z,14.32
2023-03-19T12:11:09.093Z,14.37
2023-03-19T12:13:57.316Z,14.42
2023-03-19T12:16:46.101Z,14.46
2023-03-19T12:19:34.703Z,14.48
2023-03-19T12:22:19.103Z,14.45
2023-03-19T12:25:09.845Z,14.51
2023-03-19T12:27:48.767Z,14.54
2023-03-19T12:30:37.336Z,14.58
2023-03-19T12:33:22.397Z,14.62
2023-03-19T12:35:57.066Z,14.63
2023-03-19T12:38:35.414Z,14.65
2023-03-19T12:41:12.807Z,14.70
2023-03-19T12:43:53.353Z,14.77
2023-03-19T12:46:29.808Z,14.82
2023-03-19T12:49:08.232Z,14.83
2023-03-19T12:51:45.503Z,14.88
2023-03-19T12:54:22.403Z,14.91
2023-03-19T12:57:01.178Z,14.88
2023-03-19T12:59:38.331Z,14.91
2023-03-19T13:02:19.160Z,14.94
2023-03-19T13:04:56.867Z,14.99
2023-03-19T13:07:37.476Z,15.03
2023-03-19T13:10:14.179Z,15.01
2023-03-19T13:12:47.357Z,14.96
2023-03-19T13:15:27.544Z,14.98
2023-03-19T13:18:13.115Z,15.04
2023-03-19T13:21:00.987Z,15.10
2023-03-19T13:23:35.764Z,15.16
2023-03-19T13:26:12.605Z,15.15
2023-03-19T13:29:01.636Z,15.17
2023-03-19T13:31:37.446Z,15.20
2023-03-19T13:34:22.644Z,15.21
2023-03-19T13:37:02.468Z,15.22
2023-03-19T13:39:36.872Z,15.23
2023-03-19T13:42:38.296Z,15.24
2023-03-19T13:45:30.744Z,15.26
2023-03-19T13:48:35.596Z,15.28
2023-03-19T13:51:25.174Z,15.29
2023-03-19T13:54:07.332Z,15.26
2023-03-19T13:57:07.954Z,15.25
2023-03-19T13:59:41.060Z,15.24
2023-03-19T14:02:42.902Z,15.23
2023-03-19T14:05:22.752Z,15.20
2023-03-19T14:07:57.920Z,15.24
2023-03-19T14:10:32.587Z,15.25
2023-03-19T14:13:15.415Z,15.28
2023-03-19T14:15:52.673Z,15.30
2023-03-19T14:18:26.644Z,15.33
2023-03-19T14:21:12.991Z,15.33
2023-03-19T14:23:57.727Z,15.30
2023-03-19T14:26:29.994Z,15.28
2023-03-19T14:29:06.408Z,15.30
2023-03-19T14:31:45.910Z,15.30
2023-03-19T14:34:25.788Z,15.30
2023-03-19T14:37:05.746Z,15.34
2023-03-19T14:39:43.583Z,15.38
2023-03-19T14:42:23.511Z,15.38
2023-03-19T14:45:29.442Z,15.39
2023-03-19T14:48:26.985Z,15.34
2023-03-19T14:51:40.530Z,15.33
2023-03-19T14:54:25.368Z,15.33
2023-03-19T14:56:58.542Z,15.34
2023-03-19T14:59:40.177Z,15.31
2023-03-19T15:02:29.119Z,15.35
2023-03-19T15:05:01.858Z,15.36
2023-03-19T15:07:38.695Z,15.34
2023-03-19T15:10:18.478Z,15.38
2023-03-19T15:13:21.797Z,15.39
2023-03-19T15:16:06.463Z,15.40
2023-03-19T15:18:39.957Z,15.36
2023-03-19T15:21:12.103Z,15.34
2023-03-19T15:23:46.203Z,15.36
2023-03-19T15:26:30.034Z,15.36
2023-03-19T15:29:04.160Z,15.35
2023-03-19T15:32:02.513Z,15.38
2023-03-19T15:34:37.320Z,15.38
2023-03-19T15:37:13.821Z,15.34
2023-03-19T15:39:51.440Z,15.33
2023-03-19T15:42:27.025Z,15.31
2023-03-19T15:45:04.833Z,15.27
2023-03-19T15:47:40.703Z,15.27
2023-03-19T15:50:17.111Z,15.27
2023-03-19T15:52:52.168Z,15.28
2023-03-19T15:55:27.317Z,15.27
2023-03-19T15:58:04.097Z,15.25
2023-03-19T16:00:40.273Z,15.26
2023-03-19T16:03:19.992Z,15.24
2023-03-19T16:06:03.866Z,15.23
2023-03-19T16:08:36.223Z,15.22
2023-03-19T16:11:28.528Z,15.21
2023-03-19T16:14:02.934Z,15.21
2023-03-19T16:16:38.768Z,15.19
2023-03-19T16:19:34.812Z,15.17
2023-03-19T16:22:14.975Z,15.15
2023-03-19T16:24:48.591Z,15.08
2023-03-19T16:27:22.690Z,15.01
2023-03-19T16:30:00.883Z,14.90
2023-03-19T16:32:33.999Z,14.86
2023-03-19T16:35:14.068Z,14.81
2023-03-19T16:37:48.730Z,14.69
2023-03-19T16:40:44.500Z,14.57
2023-03-19T16:43:23.356Z,14.46
2023-03-19T16:46:08.895Z,14.44
2023-03-19T16:48:40.906Z,14.38
2023-03-19T16:51:18.445Z,14.29
2023-03-19T16:53:51.167Z,14.28
2023-03-19T16:56:23.100Z,14.18
2023-03-19T16:58:55.402Z,14.08
2023-03-19T17:01:28.312Z,14.06
2023-03-19T17:04:00.432Z,14.03
2023-03-19T17:06:34.406Z,13.89
2023-03-19T17:09:06.455Z,13.79
2023-03-19T17:11:41.619Z,13.68
2023-03-19T17:14:18.792Z,13.66
2023-03-19T17:16:52.040Z,13.59
2023-03-19T17:19:25.852Z,13.57
2023-03-19T17:22:00.081Z,13.55
2023-03-19T17:24:34.771Z,13.46
2023-03-19T17:27:06.993Z,13.38
2023-03-19T17:29:39.400Z,13.36
2023-03-19T17:32:19.103Z,13.35
2023-03-19T17:34:53.826Z,13.32
2023-03-19T17:37:28.613Z,13.27
2023-03-19T17:40:00.598Z,13.23
2023-03-19T17:42:33.517Z,13.16
2023-03-19T17:45:05.708Z,13.10
2023-03-19T17:47:37.501Z,13.02
2023-03-19T17:50:15.513Z,12.92
2023-03-19T17:52:48.293Z,12.86
2023-03-19T17:55:22.882Z,12.81
2023-03-19T17:57:55.271Z,12.74
2023-03-19T18:00:27.494Z,12.69
2023-03-19T18:02:59.982Z,12.67
2023-03-19T18:05:32.302Z,12.66
2023-03-19T18:08:04.139Z,12.61
2023-03-19T18:10:36.274Z,12.56
2023-03-19T18:13:08.445Z,12.50
2023-03-19T18:15:42.591Z,12.47
2023-03-19T18:18:19.512Z,12.43
2023-03-19T18:20:51.504Z,12.37
2023-03-19T18:23:24.741Z,12.33
2023-03-19T18:25:56.812Z,12.29
2023-03-19T18:28:28.739Z,12.25
2023-03-19T18:31:03.378Z,12.19
2023-03-19T18:33:37.653Z,12.13
2023-03-19T18:36:11.519Z,12.06
2023-03-19T18:38:43.473Z,11.96
2023-03-19T18:41:20.361Z,11.90
2023-03-19T18:44:09.396Z,11.84
2023-03-19T18:46:41.870Z,11.80
2023-03-19T18:49:22.450Z,11.78
2023-03-19T18:52:02.640Z,11.72
2023-03-19T18:54:35.170Z,11.66
2023-03-19T18:57:10.915Z,11.65
2023-03-19T18:59:43.201Z,11.64
2023-03-19T19:02:29.655Z,11.59
2023-03-19T19:05:01.982Z,11.57
2023-03-19T19:07:34.369Z,11.52
2023-03-19T19:10:27.540Z,11.43
2023-03-19T19:13:46.259Z,11.44
2023-03-19T19:16:35.484Z,11.41
2023-03-19T19:19:49.065Z,11.35
2023-03-19T19:22:30.525Z,11.33
2023-03-19T19:25:03.112Z,11.27
2023-03-19T19:27:35.691Z,11.20
2023-03-19T19:30:14.390Z,11.20
2023-03-19T19:33:07.387Z,11.14
2023-03-19T19:35:48.915Z,10.97
2023-03-19T19:38:21.943Z,10.88
2023-03-19T19:40:59.336Z,10.86
2023-03-19T19:43:32.919Z,10.86
2023-03-19T19:46:03.103Z,10.82
2023-03-19T19:48:34.969Z,10.69
2023-03-19T19:51:08.471Z,10.75
2023-03-19T19:53:41.111Z,10.74
2023-03-19T19:56:18.596Z,10.67
2023-03-19T19:58:54.690Z,10.49
2023-03-19T20:01:27.980Z,10.26
2023-03-19T20:04:03.964Z,10.08
2023-03-19T20:06:38.312Z,10.06
2023-03-19T20:09:14.417Z,10.07
2023-03-19T20:11:47.793Z,10.00
2023-03-19T20:14:19.642Z,9.86
2023-03-19T20:16:52.054Z,9.72
2023-03-19T20:19:24.991Z,9.72
2023-03-19T20:21:56.751Z,9.77
2023-03-19T20:24:28.723Z,9.80
2023-03-19T20:27:02.434Z,9.79
2023-03-19T20:29:40.340Z,9.68
2023-03-19T20:32:27.689Z,9.55
2023-03-19T20:35:00.557Z,9.41
2023-03-19T20:37:31.139Z,9.33
2023-03-19T20:40:02.940Z,9.38
2023-03-19T20:42:36.229Z,9.33
2023-03-19T20:45:15.036Z,9.29
2023-03-19T20:47:47.172Z,9.38
2023-03-19T20:50:24.879Z,9.38
2023-03-19T20:53:00.993Z,9.36
2023-03-19T20:55:35.582Z,9.28
2023-03-19T20:58:17.622Z,9.30
2023-03-19T21:00:49.865Z,9.30
2023-03-19T21:03:23.879Z,9.27
2023-03-19T21:06:01.795Z,9.23
2023-03-19T21:08:37.525Z,9.21
2023-03-19T21:11:17.618Z,9.33
2023-03-19T21:13:51.899Z,9.34
2023-03-19T21:16:26.166Z,9.34
2023-03-19T21:18:58.933Z,9.25
2023-03-19T21:21:34.458Z,9.20
2023-03-19T21:24:13.712Z,9.18
2023-03-19T21:26:46.927Z,9.21
2023-03-19T21:29:27.637Z,9.25
2023-03-19T21:31:59.520Z,9.21
2023-03-19T21:34:31.740Z,9.08
2023-03-19T21:37:04.733Z,9.00
2023-03-19T21:39:35.012Z,8.99
2023-03-19T21:42:09.771Z,9.06
2023-03-19T21:44:42.428Z,8.98
2023-03-19T21:47:18.794Z,8.92
2023-03-19T21:49:51.543Z,8.97
2023-03-19T21:52:22.674Z,9.04
2023-03-19T21:54:59.753Z,9.07
2023-03-19T21:57:33.066Z,9.10
2023-03-19T22:00:05.458Z,9.17
2023-03-19T22:02:45.800Z,9.22
2023-03-19T22:05:24.015Z,9.21
2023-03-19T22:07:56.464Z,9.15
2023-03-19T22:10:31.496Z,9.13
2023-03-19T22:13:03.778Z,9.02
2023-03-19T22:15:37.976Z,8.89
2023-03-19T22:18:47.821Z,8.86
2023-03-19T22:21:23.513Z,8.80
2023-03-19T22:23:56.152Z,8.64
2023-03-19T22:26:31.319Z,8.70
2023-03-19T22:29:06.413Z,8.80
2023-03-19T22:31:41.387Z,8.72
2023-03-19T22:34:16.838Z,8.68
2023-03-19T22:36:51.472Z,8.61
2023-03-19T22:39:23.810Z,8.66
2023-03-19T22:41:55.958Z,8.69
2023-03-19T22:44:31.603Z,8.58
2023-03-19T22:47:16.335Z,8.49
2023-03-19T22:49:48.759Z,8.43
2023-03-19T22:52:22.324Z,8.36
2023-03-19T22:54:56.201Z,8.36
2023-03-19T22:57:30.371Z,8.43
2023-03-19T23:00:05.389Z,8.38
2023-03-19T23:02:37.384Z,8.26
2023-03-19T23:05:26.971Z,8.21
2023-03-19T23:07:59.649Z,8.16
2023-03-19T23:10:32.339Z,8.01
2023-03-19T23:13:05.035Z,7.92
2023-03-19T23:15:37.693Z,7.93
2023-03-19T23:18:16.110Z,7.98
2023-03-19T23:20:49.383Z,7.90
2023-03-19T23:23:25.928Z,7.82
2023-03-19T23:26:02.538Z,7.82
2023-03-19T23:28:36.999Z,7.86
2023-03-19T23:31:12.415Z,7.99
2023-03-19T23:33:46.213Z,8.00
2023-03-19T23:36:18.900Z,8.03
2023-03-19T23:38:52.323Z,8.03
2023-03-19T23:41:27.118Z,8.09
2023-03-19T23:44:01.494Z,8.05
2023-03-19T23:46:36.902Z,7.94
2023-03-19T23:49:15.940Z,7.84
2023-03-19T23:51:50.916Z,7.80
2023-03-19T23:54:38.110Z,7.77
2023-03-19T23:57:21.843Z,7.80
